Terminal Aerodrome Forecast
Issued by NWS

Home | Current Version | Previous Version | Text Only | Print | Product List | Glossary On
Versions: 1 2 3 4 5 6 7 8 9 10 11 12 13 14 15 16
535
FTUS45 KABQ 080641 AAA
TAFROW
TAF AMD
KROW 080641Z 0807/0906 04013KT P6SM OVC025
     FM081400 08007KT P6SM OVC035
     FM082200 15005KT P6SM BKN250=

USA.gov is the U.S. government's official web portal to all federal, state and local government web resources and services.